createdAt,value
2022-11-12T00:01:23.919Z,99808.59
2022-11-12T00:03:52.762Z,99815.81
2022-11-12T00:06:21.687Z,99816.66
2022-11-12T00:08:51.818Z,99824.72
2022-11-12T00:11:20.712Z,99819.34
2022-11-12T00:13:49.938Z,99820.34
2022-11-12T00:16:18.682Z,99824.72
2022-11-12T00:18:48.300Z,99820.34
2022-11-12T00:21:17.089Z,99823.03
2022-11-12T00:23:45.889Z,99819.50
2022-11-12T00:26:16.102Z,99823.88
2022-11-12T00:28:44.933Z,99817.66
2022-11-12T00:31:13.703Z,99811.28
2022-11-12T00:33:42.740Z,99809.75
2022-11-12T00:36:11.838Z,99813.13
2022-11-12T00:38:40.597Z,99811.44
2022-11-12T00:41:09.313Z,99806.91
2022-11-12T00:43:39.523Z,99809.75
2022-11-12T00:46:08.354Z,99813.28
2022-11-12T00:48:37.283Z,99811.44
2022-11-12T00:51:06.673Z,99813.28
2022-11-12T00:53:35.440Z,99807.91
2022-11-12T00:56:04.783Z,99808.88
2022-11-12T00:58:34.341Z,99815.13
2022-11-12T01:01:08.519Z,99810.59
2022-11-12T01:03:37.414Z,99819.63
2022-11-12T01:06:06.846Z,99813.41
2022-11-12T01:08:35.638Z,99813.41
2022-11-12T01:11:08.946Z,99811.72
2022-11-12T01:13:42.874Z,99801.81
2022-11-12T01:16:15.461Z,99809.88
2022-11-12T01:18:44.289Z,99809.88
2022-11-12T01:21:13.066Z,99813.56
2022-11-12T01:23:42.573Z,99806.34
2022-11-12T01:26:13.725Z,99800.97
2022-11-12T01:28:42.602Z,99809.03
2022-11-12T01:31:17.107Z,99803.66
2022-11-12T01:33:46.563Z,99807.19
2022-11-12T01:36:15.570Z,99809.03
2022-11-12T01:38:44.777Z,99798.41
2022-11-12T01:41:14.999Z,99808.19
2022-11-12T01:43:44.048Z,99815.41
2022-11-12T01:46:18.671Z,99810.88
2022-11-12T01:48:50.831Z,99819.94
2022-11-12T01:51:20.225Z,99813.56
2022-11-12T01:53:50.495Z,99809.16
2022-11-12T01:56:19.210Z,99812.69
2022-11-12T01:58:48.324Z,99811.88
2022-11-12T02:01:19.012Z,99819.94
2022-11-12T02:03:47.774Z,99810.19
2022-11-12T02:06:16.769Z,99812.88
2022-11-12T02:08:47.491Z,99810.19
2022-11-12T02:11:17.978Z,99806.66
2022-11-12T02:13:58.127Z,99811.16
2022-11-12T02:16:30.064Z,99807.50
2022-11-12T02:18:58.946Z,99811.16
2022-11-12T02:21:29.503Z,99811.16
2022-11-12T02:24:02.403Z,99815.56
2022-11-12T02:26:33.343Z,99808.47
2022-11-12T02:29:02.228Z,99812.03
2022-11-12T02:31:31.739Z,99811.16
2022-11-12T02:34:00.880Z,99820.09
2022-11-12T02:36:31.499Z,99810.31
2022-11-12T02:39:00.445Z,99813.84
2022-11-12T02:41:29.279Z,99817.53
2022-11-12T02:43:58.332Z,99818.38
2022-11-12T02:46:27.250Z,99810.31
2022-11-12T02:48:56.063Z,99823.75
2022-11-12T02:51:24.964Z,99814.84
2022-11-12T02:53:55.197Z,99813.16
2022-11-12T02:56:23.981Z,99808.63
2022-11-12T02:58:52.677Z,99812.16
2022-11-12T03:01:21.454Z,99807.78
2022-11-12T03:03:50.328Z,99807.78
2022-11-12T03:06:19.070Z,99812.28
2022-11-12T03:08:47.881Z,99822.19
2022-11-12T03:11:18.305Z,99823.03
2022-11-12T03:13:47.029Z,99828.41
2022-11-12T03:16:15.803Z,99818.53
2022-11-12T03:18:44.673Z,99806.91
2022-11-12T03:21:14.040Z,99811.44
2022-11-12T03:23:43.294Z,99814.13
2022-11-12T03:26:12.037Z,99812.28
2022-11-12T03:28:42.156Z,99816.81
2022-11-12T03:31:12.219Z,99811.44
2022-11-12T03:33:41.021Z,99806.06
2022-11-12T03:36:10.105Z,99805.22
2022-11-12T03:38:39.154Z,99806.06
2022-11-12T03:41:07.874Z,99802.69
2022-11-12T03:43:36.764Z,99803.53
2022-11-12T03:46:07.026Z,99808.91
2022-11-12T03:48:35.997Z,99808.91
2022-11-12T03:51:04.944Z,99809.75
2022-11-12T03:53:33.755Z,99800.84
2022-11-12T03:56:02.680Z,99800.84
2022-11-12T03:58:31.487Z,99791.94
2022-11-12T04:01:00.511Z,99795.47
2022-11-12T04:03:30.779Z,99783.88
2022-11-12T04:06:17.286Z,99791.94
2022-11-12T04:08:46.071Z,99794.63
2022-11-12T04:11:17.139Z,99791.94
2022-11-12T04:13:47.781Z,99797.31
2022-11-12T04:16:46.854Z,99794.63
2022-11-12T04:19:34.686Z,99801.81
2022-11-12T04:22:04.722Z,99808.06
2022-11-12T04:24:52.462Z,99793.75
2022-11-12T04:27:22.567Z,99787.53
2022-11-12T04:30:23.703Z,99790.22
2022-11-12T04:32:54.765Z,99786.56
2022-11-12T04:35:25.888Z,99794.75
2022-11-12T04:37:55.244Z,99789.38
2022-11-12T04:40:43.309Z,99791.22
2022-11-12T04:43:30.332Z,99793.91
2022-11-12T04:45:59.173Z,99793.91
2022-11-12T04:48:28.086Z,99791.22
2022-11-12T04:50:59.997Z,99791.22
2022-11-12T04:53:28.881Z,99787.53
2022-11-12T04:55:58.996Z,99790.22
2022-11-12T04:58:28.113Z,99776.94
2022-11-12T05:00:57.251Z,99784.13
2022-11-12T05:03:26.206Z,99787.53
2022-11-12T05:05:54.986Z,99788.53
2022-11-12T05:08:25.457Z,99779.63
2022-11-12T05:10:54.453Z,99779.63
2022-11-12T05:13:23.323Z,99788.53
2022-11-12T05:15:52.166Z,99776.94
2022-11-12T05:18:21.263Z,99784.00
2022-11-12T05:20:51.491Z,99776.94
2022-11-12T05:23:20.278Z,99782.31
2022-11-12T05:25:50.592Z,99777.78
2022-11-12T05:28:19.390Z,99782.44
2022-11-12T05:30:49.913Z,99785.97
2022-11-12T05:33:18.686Z,99785.97
2022-11-12T05:35:47.691Z,99790.38
2022-11-12T05:38:16.471Z,99777.91
2022-11-12T05:40:46.536Z,99792.19
2022-11-12T05:43:16.809Z,99795.88
2022-11-12T05:45:45.840Z,99795.88
2022-11-12T05:48:14.623Z,99794.03
2022-11-12T05:51:06.116Z,99799.41
2022-11-12T05:53:32.180Z,99795.88
2022-11-12T05:56:03.387Z,99805.78
2022-11-12T05:58:33.571Z,99804.78
2022-11-12T06:01:02.626Z,99808.50
2022-11-12T06:03:31.417Z,99805.78
2022-11-12T06:06:00.397Z,99805.78
2022-11-12T06:08:29.434Z,99805.78
2022-11-12T06:10:58.378Z,99822.78
2022-11-12T06:13:27.306Z,99820.81
2022-11-12T06:15:57.546Z,99820.81
2022-11-12T06:18:26.641Z,99830.84
2022-11-12T06:21:12.750Z,99824.47
2022-11-12T06:23:41.625Z,99835.22
2022-11-12T06:26:10.477Z,99828.16
2022-11-12T06:28:39.287Z,99837.06
2022-11-12T06:31:09.522Z,99829.84
2022-11-12T06:33:38.357Z,99832.53
2022-11-12T06:36:08.018Z,99830.44
2022-11-12T06:38:38.867Z,99832.28
2022-11-12T06:41:07.952Z,99831.28
2022-11-12T06:43:37.074Z,99835.66
2022-11-12T06:46:06.890Z,99836.50
2022-11-12T06:48:37.196Z,99841.75
2022-11-12T06:51:10.615Z,99841.88
2022-11-12T06:53:39.468Z,99836.34
2022-11-12T06:56:09.187Z,99840.72
2022-11-12T06:58:38.076Z,99858.59
2022-11-12T07:01:11.425Z,99866.66
2022-11-12T07:03:42.779Z,99860.28
2022-11-12T07:06:12.335Z,99855.63
2022-11-12T07:08:41.279Z,99866.38
2022-11-12T07:11:10.387Z,99860.28
2022-11-12T07:13:39.095Z,99867.22
2022-11-12T07:16:09.130Z,99866.94
2022-11-12T07:18:37.902Z,99848.94
2022-11-12T07:21:11.407Z,99851.50
2022-11-12T07:23:40.159Z,99844.56
2022-11-12T07:26:11.917Z,99840.88
2022-11-12T07:28:40.696Z,99849.81
2022-11-12T07:31:11.061Z,99843.44
2022-11-12T07:33:39.787Z,99849.66
2022-11-12T07:36:11.359Z,99846.25
2022-11-12T07:38:40.886Z,99857.16
2022-11-12T07:41:11.163Z,99860.72
2022-11-12T07:43:40.329Z,99859.69
2022-11-12T07:46:11.311Z,99857.72
2022-11-12T07:48:40.267Z,99855.75
2022-11-12T07:51:13.995Z,99854.75
2022-11-12T07:53:43.366Z,99862.13
2022-11-12T07:56:13.453Z,99863.53
2022-11-12T07:58:42.865Z,99866.94
2022-11-12T08:01:12.571Z,99874.00
2022-11-12T08:03:41.378Z,99863.25
2022-11-12T08:06:11.480Z,99857.84
2022-11-12T08:08:40.244Z,99856.16
2022-11-12T08:11:09.496Z,99861.25
2022-11-12T08:13:38.370Z,99870.34
2022-11-12T08:16:07.590Z,99872.03
2022-11-12T08:18:36.330Z,99863.81
2022-11-12T08:21:05.933Z,99872.56
2022-11-12T08:23:36.006Z,99878.84
2022-11-12T08:26:05.860Z,99887.03
2022-11-12T08:28:35.677Z,99871.44
2022-11-12T08:31:05.181Z,99877.28
2022-11-12T08:33:33.918Z,99884.22
2022-11-12T08:36:04.368Z,99888.47
2022-11-12T08:38:33.276Z,99887.75
2022-11-12T08:41:03.884Z,99881.38
2022-11-12T08:43:32.651Z,99881.38
2022-11-12T08:46:01.797Z,99887.88
2022-11-12T08:48:30.703Z,99892.84
2022-11-12T08:50:59.542Z,99885.47
2022-11-12T08:53:28.652Z,99880.78
2022-11-12T08:55:57.539Z,99878.09
2022-11-12T08:58:27.784Z,99885.03
2022-11-12T09:00:56.794Z,99875.97
2022-11-12T09:03:26.654Z,99883.09
2022-11-12T09:05:55.169Z,99886.75
2022-11-12T09:08:27.315Z,99889.44
2022-11-12T09:10:56.074Z,99892.97
2022-11-12T09:13:26.196Z,99892.97
2022-11-12T09:15:54.780Z,99888.84
2022-11-12T09:18:24.170Z,99886.03
2022-11-12T09:20:52.787Z,99884.06
2022-11-12T09:23:21.433Z,99891.16
2022-11-12T09:25:50.038Z,99888.47
2022-11-12T09:28:19.655Z,99883.94
2022-11-12T09:30:50.530Z,99892.88
2022-11-12T09:33:21.169Z,99883.94
2022-11-12T09:35:49.968Z,99892.13
2022-11-12T09:38:19.004Z,99885.03
2022-11-12T09:41:02.606Z,99877.13
2022-11-12T09:43:33.295Z,99894.09
2022-11-12T09:46:26.781Z,99879.22
2022-11-12T09:48:58.814Z,99882.63
2022-11-12T09:51:28.456Z,99883.75
2022-11-12T09:53:58.146Z,99886.63
2022-11-12T09:56:28.282Z,99887.28
2022-11-12T09:58:56.735Z,99888.16
2022-11-12T10:01:40.118Z,99887.28
2022-11-12T10:04:23.897Z,99882.22
2022-11-12T10:06:57.220Z,99885.63
2022-11-12T10:09:29.574Z,99875.56
2022-11-12T10:12:24.291Z,99878.97
2022-11-12T10:15:36.413Z,99872.56
2022-11-12T10:18:09.297Z,99874.13
2022-11-12T10:20:41.921Z,99878.53
2022-11-12T10:23:19.630Z,99877.56
2022-11-12T10:25:49.671Z,99870.34
2022-11-12T10:28:27.420Z,99875.72
2022-11-12T10:30:58.750Z,99881.09
2022-11-12T10:33:32.968Z,99869.63
2022-11-12T10:36:25.030Z,99868.66
2022-11-12T10:38:55.151Z,99865.22
2022-11-12T10:41:26.511Z,99868.75
2022-11-12T10:43:57.245Z,99868.88
2022-11-12T10:46:27.520Z,99860.69
2022-11-12T10:49:02.575Z,99864.38
2022-11-12T10:51:33.841Z,99859.72
2022-11-12T10:54:21.265Z,99865.50
2022-11-12T10:56:55.126Z,99862.09
2022-11-12T10:59:24.107Z,99871.44
2022-11-12T11:01:57.248Z,99872.44
2022-11-12T11:04:37.534Z,99872.44
2022-11-12T11:07:07.829Z,99873.28
2022-11-12T11:09:36.376Z,99860.69
2022-11-12T11:12:05.422Z,99870.59
2022-11-12T11:14:35.427Z,99870.47
2022-11-12T11:17:08.745Z,99864.38
2022-11-12T11:19:40.298Z,99863.50
2022-11-12T11:22:25.074Z,99865.34
2022-11-12T11:25:03.050Z,99863.50
2022-11-12T11:27:36.057Z,99860.97
2022-11-12T11:30:11.212Z,99859.41
2022-11-12T11:33:07.763Z,99862.81
2022-11-12T11:35:51.250Z,99864.63
2022-11-12T11:38:33.244Z,99854.16
2022-11-12T11:41:30.276Z,99849.63
2022-11-12T11:44:08.787Z,99855.00
2022-11-12T11:46:54.197Z,99853.19
2022-11-12T11:49:36.786Z,99856.84
2022-11-12T11:52:13.407Z,99858.16
2022-11-12T11:54:55.907Z,99849.63
2022-11-12T11:57:27.742Z,99860.38
2022-11-12T12:00:06.963Z,99849.63
2022-11-12T12:02:56.082Z,99850.50
2022-11-12T12:05:34.494Z,99846.94
2022-11-12T12:08:06.229Z,99840.56
2022-11-12T12:13:41.800Z,99838.03
2022-11-12T12:16:23.081Z,99839.56
2022-11-12T12:18:54.732Z,99840.56
2022-11-12T12:21:23.356Z,99842.25
2022-11-12T12:23:56.475Z,99835.91
2022-11-12T12:26:28.527Z,99836.88
2022-11-12T12:29:00.310Z,99835.19
2022-11-12T12:31:32.445Z,99829.81
2022-11-12T12:34:03.919Z,99836.88
2022-11-12T12:36:35.543Z,99840.41
2022-11-12T12:39:14.943Z,99829.53
2022-11-12T12:41:48.027Z,99825.97
2022-11-12T12:44:16.578Z,99822.16
2022-11-12T12:46:47.556Z,99823.00
2022-11-12T12:49:18.828Z,99818.50
2022-11-12T12:51:51.514Z,99816.78
2022-11-12T12:54:58.618Z,99821.44
2022-11-12T12:57:44.893Z,99814.22
2022-11-12T13:00:34.455Z,99814.22
2022-11-12T13:03:03.013Z,99815.34
2022-11-12T13:05:34.550Z,99811.69
2022-11-12T13:08:05.350Z,99810.69
2022-11-12T13:10:53.708Z,99805.44
2022-11-12T13:13:32.124Z,99801.75
2022-11-12T13:16:01.927Z,99798.06
2022-11-12T13:19:02.084Z,99801.59
2022-11-12T13:21:30.995Z,99804.28
2022-11-12T13:24:07.724Z,99809.69
2022-11-12T13:26:47.873Z,99794.53
2022-11-12T13:29:45.147Z,99797.34
2022-11-12T13:32:37.812Z,99806.31
2022-11-12T13:35:30.293Z,99811.69
2022-11-12T13:38:03.894Z,99813.38
2022-11-12T13:40:41.241Z,99812.66
2022-11-12T13:43:31.435Z,99815.34
2022-11-12T13:46:06.190Z,99808.41
2022-11-12T13:48:37.908Z,99806.56
2022-11-12T13:51:12.118Z,99806.56
2022-11-12T13:53:40.830Z,99814.81
2022-11-12T13:56:11.492Z,99811.28
2022-11-12T13:58:42.108Z,99806.88
2022-11-12T14:01:12.266Z,99806.56
2022-11-12T14:03:45.290Z,99797.53
2022-11-12T14:06:18.273Z,99798.38
2022-11-12T14:09:14.002Z,99785.03
2022-11-12T14:12:02.533Z,99792.13
2022-11-12T14:14:43.580Z,99787.72
2022-11-12T14:17:22.542Z,99785.91
2022-11-12T14:20:09.805Z,99785.03
2022-11-12T14:22:41.458Z,99786.03
2022-11-12T14:25:18.178Z,99781.50
2022-11-12T14:27:47.214Z,99786.03
2022-11-12T14:30:20.910Z,99787.06
2022-11-12T14:32:51.696Z,99788.75
2022-11-12T14:35:35.489Z,99782.66
2022-11-12T14:38:18.886Z,99786.22
2022-11-12T14:40:51.383Z,99783.34
2022-11-12T14:43:27.263Z,99779.09
2022-11-12T14:45:58.286Z,99783.53
2022-11-12T14:48:27.519Z,99775.88
2022-11-12T14:51:02.008Z,99777.44
2022-11-12T14:53:33.228Z,99774.03
2022-11-12T14:56:02.441Z,99781.97
2022-11-12T14:58:32.299Z,99774.56
2022-11-12T15:02:13.989Z,99790.72
2022-11-12T15:04:19.722Z,99788.03
2022-11-12T15:06:55.500Z,99789.88
2022-11-12T15:09:35.488Z,99779.09
2022-11-12T15:12:05.887Z,99782.81
2022-11-12T15:14:34.430Z,99781.09
2022-11-12T15:17:05.781Z,99786.47
2022-11-12T15:19:34.365Z,99790.47
2022-11-12T15:22:03.944Z,99777.84
2022-11-12T15:24:33.336Z,99784.25
2022-11-12T15:27:02.958Z,99776.84
2022-11-12T15:29:33.484Z,99778.69
2022-11-12T15:32:08.593Z,99782.22
2022-11-12T15:34:48.127Z,99773.47
2022-11-12T15:37:23.631Z,99779.41
2022-11-12T15:39:54.510Z,99782.22
2022-11-12T15:42:27.741Z,99779.53
2022-11-12T15:45:01.081Z,99780.41
2022-11-12T15:47:31.069Z,99786.94
2022-11-12T15:50:00.060Z,99779.69
2022-11-12T15:52:28.749Z,99793.00
2022-11-12T15:54:57.260Z,99797.41
2022-11-12T15:57:27.582Z,99790.47
2022-11-12T16:00:04.530Z,99791.31
2022-11-12T16:02:37.590Z,99784.25
2022-11-12T16:05:07.663Z,99795.00
2022-11-12T16:07:36.572Z,99804.75
2022-11-12T16:10:05.514Z,99802.06
2022-11-12T16:12:34.039Z,99798.53
2022-11-12T16:15:02.868Z,99807.44
2022-11-12T16:17:31.426Z,99812.00
2022-11-12T16:20:01.421Z,99808.28
2022-11-12T16:22:29.914Z,99806.59
2022-11-12T16:24:58.413Z,99811.69
2022-11-12T16:27:28.563Z,99809.13
2022-11-12T16:29:59.357Z,99810.00
2022-11-12T16:32:27.903Z,99810.84
2022-11-12T16:35:00.977Z,99803.75
2022-11-12T16:37:31.306Z,99807.16
2022-11-12T16:39:59.886Z,99797.41
2022-11-12T16:42:28.345Z,99796.69
2022-11-12T16:44:58.714Z,99802.06
2022-11-12T16:47:27.206Z,99797.53
2022-11-12T16:49:55.727Z,99797.53
2022-11-12T16:52:26.890Z,99802.06
2022-11-12T16:55:04.306Z,99802.06
2022-11-12T16:57:33.432Z,99816.53
2022-11-12T17:00:01.900Z,99803.91
2022-11-12T17:02:31.003Z,99811.81
2022-11-12T17:05:02.123Z,99816.53
2022-11-12T17:07:32.458Z,99820.19
2022-11-12T17:10:02.313Z,99825.44
2022-11-12T17:12:30.939Z,99816.53
2022-11-12T17:14:59.409Z,99819.22
2022-11-12T17:17:27.894Z,99826.41
2022-11-12T17:19:56.480Z,99817.50
2022-11-12T17:22:25.029Z,99820.19
2022-11-12T17:24:53.644Z,99830.94
2022-11-12T17:27:23.677Z,99820.19
2022-11-12T17:29:52.123Z,99817.38
2022-11-12T17:32:20.738Z,99814.69
2022-11-12T17:34:49.201Z,99816.53
2022-11-12T17:37:17.686Z,99815.81
2022-11-12T17:39:46.363Z,99819.22
2022-11-12T17:42:14.860Z,99815.53
2022-11-12T17:44:46.307Z,99820.06
2022-11-12T17:47:14.936Z,99816.53
2022-11-12T17:49:43.990Z,99815.66
2022-11-12T17:52:12.564Z,99828.97
2022-11-12T17:54:41.091Z,99816.53
2022-11-12T17:57:09.532Z,99822.75
2022-11-12T17:59:38.185Z,99828.13
2022-11-12T18:02:12.141Z,99811.16
2022-11-12T18:04:40.843Z,99818.22
2022-11-12T18:07:09.339Z,99818.22
2022-11-12T18:09:38.174Z,99821.75
2022-11-12T18:12:07.312Z,99825.28
2022-11-12T18:14:36.166Z,99812.00
2022-11-12T18:17:05.025Z,99820.06
2022-11-12T18:19:34.988Z,99818.22
2022-11-12T18:22:03.433Z,99814.69
2022-11-12T18:24:32.674Z,99806.59
2022-11-12T18:27:01.284Z,99806.59
2022-11-12T18:29:29.763Z,99805.75
2022-11-12T18:31:58.221Z,99812.97
2022-11-12T18:34:28.260Z,99824.72
2022-11-12T18:36:58.344Z,99821.19
2022-11-12T18:39:27.558Z,99823.03
2022-11-12T18:41:56.191Z,99824.59
2022-11-12T18:44:26.275Z,99828.25
2022-11-12T18:46:54.970Z,99831.78
2022-11-12T18:49:23.638Z,99825.56
2022-11-12T18:51:52.317Z,99822.88
2022-11-12T18:54:24.403Z,99826.41
2022-11-12T18:56:52.869Z,99828.25
2022-11-12T18:59:23.345Z,99838.06
2022-11-12T19:01:51.950Z,99836.34
2022-11-12T19:04:20.530Z,99841.72
2022-11-12T19:06:49.078Z,99843.44
2022-11-12T19:09:17.972Z,99839.88
2022-11-12T19:11:48.541Z,99849.50
2022-11-12T19:14:16.993Z,99844.28
2022-11-12T19:16:45.730Z,99850.22
2022-11-12T19:19:15.203Z,99847.38
2022-11-12T19:21:43.695Z,99850.06
2022-11-12T19:24:12.167Z,99852.91
2022-11-12T19:26:40.712Z,99853.91
2022-11-12T19:29:10.483Z,99852.06
2022-11-12T19:31:39.174Z,99857.31
2022-11-12T19:34:07.735Z,99861.81
2022-11-12T19:36:36.299Z,99859.28
2022-11-12T19:39:04.981Z,99868.34
2022-11-12T19:41:33.531Z,99864.66
2022-11-12T19:44:02.138Z,99865.63
2022-11-12T19:46:34.256Z,99862.09
2022-11-12T19:49:02.916Z,99868.34
2022-11-12T19:51:32.063Z,99864.66
2022-11-12T19:54:00.541Z,99861.13
2022-11-12T19:56:29.381Z,99863.81
2022-11-12T19:58:57.973Z,99859.28
2022-11-12T20:01:26.469Z,99857.44
2022-11-12T20:03:56.405Z,99851.22
2022-11-12T20:06:27.323Z,99849.38
2022-11-12T20:08:55.818Z,99857.44
2022-11-12T20:11:24.295Z,99859.28
2022-11-12T20:13:54.126Z,99856.59
2022-11-12T20:16:25.494Z,99857.44
2022-11-12T20:18:56.376Z,99866.34
2022-11-12T20:21:25.302Z,99863.66
2022-11-12T20:23:53.789Z,99860.13
2022-11-12T20:26:22.250Z,99861.97
2022-11-12T20:28:50.748Z,99845.13
2022-11-12T20:31:20.973Z,99858.44
2022-11-12T20:33:50.008Z,99870.91
2022-11-12T20:36:21.366Z,99871.75
2022-11-12T20:38:50.608Z,99871.75
2022-11-12T20:41:20.647Z,99865.50
2022-11-12T20:43:49.184Z,99866.34
2022-11-12T20:46:17.662Z,99864.66
2022-11-12T20:48:46.106Z,99864.66
2022-11-12T20:51:25.244Z,99870.03
2022-11-12T20:53:59.216Z,99877.13
2022-11-12T20:56:29.251Z,99870.19
2022-11-12T20:58:58.291Z,99881.66
2022-11-12T21:01:27.433Z,99875.44
2022-11-12T21:03:56.013Z,99873.72
2022-11-12T21:06:26.516Z,99880.94
2022-11-12T21:08:59.046Z,99879.09
2022-11-12T21:11:27.751Z,99881.78
2022-11-12T21:13:57.409Z,99882.78
2022-11-12T21:16:26.086Z,99883.63
2022-11-12T21:18:54.719Z,99886.31
2022-11-12T21:21:23.386Z,99881.78
2022-11-12T21:23:54.013Z,99879.97
2022-11-12T21:26:24.200Z,99877.28
2022-11-12T21:28:54.255Z,99874.59
2022-11-12T21:31:23.965Z,99880.94
2022-11-12T21:33:52.767Z,99879.09
2022-11-12T21:36:21.566Z,99880.81
2022-11-12T21:38:50.186Z,99880.81
2022-11-12T21:41:20.116Z,99871.91
2022-11-12T21:43:50.227Z,99876.28
2022-11-12T21:46:20.220Z,99871.75
2022-11-12T21:48:54.950Z,99877.13
2022-11-12T21:51:25.880Z,99878.25
2022-11-12T21:53:55.311Z,99875.44
2022-11-12T21:56:23.922Z,99872.03
2022-11-12T21:58:54.092Z,99873.44
2022-11-12T22:01:25.322Z,99876.16
2022-11-12T22:03:54.933Z,99867.34
2022-11-12T22:06:25.114Z,99853.91
2022-11-12T22:08:53.824Z,99859.13
2022-11-12T22:11:22.610Z,99862.69
2022-11-12T22:13:51.315Z,99864.50
2022-11-12T22:16:22.222Z,99860.00
2022-11-12T22:18:52.411Z,99866.22
2022-11-12T22:21:22.222Z,99855.47
2022-11-12T22:23:50.804Z,99851.94
2022-11-12T22:26:21.954Z,99860.00
2022-11-12T22:28:50.470Z,99860.97
2022-11-12T22:31:22.202Z,99859.13
2022-11-12T22:33:50.795Z,99855.47
2022-11-12T22:36:21.450Z,99851.94
2022-11-12T22:38:51.229Z,99856.59
2022-11-12T22:41:20.855Z,99855.59
2022-11-12T22:43:49.600Z,99852.91
2022-11-12T22:46:21.856Z,99861.13
2022-11-12T22:48:50.328Z,99867.34
2022-11-12T22:51:20.361Z,99855.88
2022-11-12T22:53:48.888Z,99851.34
2022-11-12T22:56:17.629Z,99856.72
2022-11-12T22:58:47.696Z,99856.72
2022-11-12T23:01:22.421Z,99856.72
2022-11-12T23:03:51.160Z,99852.34
2022-11-12T23:06:19.718Z,99841.72
2022-11-12T23:08:48.653Z,99844.13
2022-11-12T23:11:19.351Z,99845.97
2022-11-12T23:13:48.074Z,99846.13
2022-11-12T23:16:18.412Z,99838.06
2022-11-12T23:18:48.262Z,99846.13
2022-11-12T23:21:17.988Z,99834.66
2022-11-12T23:23:46.420Z,99841.03
2022-11-12T23:26:16.833Z,99845.41
2022-11-12T23:28:45.518Z,99841.72
2022-11-12T23:31:15.485Z,99840.88
2022-11-12T23:33:47.300Z,99841.03
2022-11-12T23:36:15.858Z,99850.06
2022-11-12T23:38:44.498Z,99847.38
2022-11-12T23:41:13.402Z,99841.03
2022-11-12T23:43:41.882Z,99837.34
2022-11-12T23:46:10.598Z,99849.09
2022-11-12T23:48:39.162Z,99842.72
2022-11-12T23:51:11.616Z,99838.34
2022-11-12T23:53:40.470Z,99836.63
2022-11-12T23:56:11.113Z,99842.84
2022-11-12T23:58:39.916Z,99842.00
